Time;durP1;ratioP1;P1;durP2;ratioP2;P2;SDS_P1;SDS_P2;PMS_P1;PMS_P2;Temp;Humidity;BMP_temperature;BMP_pressure;BME280_temperature;BME280_humidity;BME280_pressure;Samples;Min_cycle;Max_cycle;Signal;HPM_P1;HPM_P2
2020/12/30 00:00:27;;;;;;;;;;;;;;;21.92;28.32;97734.50;5120135;28;907;-76
2020/12/30 00:02:52;;;;;;;;;;;;;;;22.45;27.20;97729.13;5120159;28;845;-76
2020/12/30 00:05:18;;;;;;;;;;;;;;;22.60;26.88;97722.50;5120353;28;665;-76
2020/12/30 00:07:43;;;;;;;;;;;;;;;22.10;27.61;97729.03;5120424;28;617;-76
2020/12/30 00:10:09;;;;;;;;;;;;;;;21.66;28.29;97740.16;5119172;28;804;-76
2020/12/30 00:12:35;;;;;;;;;;;;;;;21.72;27.99;97734.72;5119947;28;865;-76
2020/12/30 00:15:01;;;;;;;;;;;;;;;21.07;28.91;97744.31;5119115;28;913;-76
2020/12/30 00:17:26;;;;;;;;;;;;;;;21.63;28.93;97735.41;5120056;28;1969;-76
2020/12/30 00:19:52;;;;;;;;;;;;;;;22.06;28.09;97734.81;5120360;28;698;-76
2020/12/30 00:22:18;;;;;;;;;;;;;;;22.45;27.45;97734.81;5120243;28;690;-76
2020/12/30 00:24:43;;;;;;;;;;;;;;;22.76;26.52;97735.72;5118855;28;792;-76
2020/12/30 00:27:09;;;;;;;;;;;;;;;22.12;27.54;97732.25;5119760;28;960;-76
2020/12/30 00:29:35;;;;;;;;;;;;;;;21.58;28.07;97745.25;5119665;28;925;-76
2020/12/30 00:32:00;;;;;;;;;;;;;;;21.45;28.30;97752.13;5120077;28;969;-76
2020/12/30 00:34:25;;;;;;;;;;;;;;;21.87;28.25;97740.75;5119948;28;641;-76
2020/12/30 00:36:51;;;;;;;;;;;;;;;22.29;27.40;97742.22;5120149;28;594;-76
2020/12/30 00:39:16;;;;;;;;;;;;;;;22.33;27.56;97745.72;5119805;28;1914;-76
2020/12/30 00:41:42;;;;;;;;;;;;;;;22.42;27.31;97741.38;5120619;28;1037;-76
2020/12/30 00:44:08;;;;;;;;;;;;;;;21.84;27.90;97739.59;5123206;28;884;-76
2020/12/30 00:46:33;;;;;;;;;;;;;;;21.41;28.50;97745.78;5123877;28;875;-76
2020/12/30 00:48:59;;;;;;;;;;;;;;;21.51;28.08;97745.47;5140098;27;1137;-76
2020/12/30 00:51:24;;;;;;;;;;;;;;;21.58;28.87;97752.94;5123789;28;662;-76
2020/12/30 00:53:51;;;;;;;;;;;;;;;22.10;27.78;97743.22;5122687;28;1201;-76
2020/12/30 00:56:17;;;;;;;;;;;;;;;22.32;27.50;97751.81;5139341;27;1152;-76
2020/12/30 00:58:43;;;;;;;;;;;;;;;22.66;27.07;97753.91;5123120;28;1909;-76
2020/12/30 01:01:14;;;;;;;;;;;;;;;22.74;26.70;97738.25;5123007;28;1318;-76
2020/12/30 01:04:12;;;;;;;;;;;;;;;22.59;26.61;97749.28;5100156;28;1096;-76
2020/12/30 01:06:37;;;;;;;;;;;;;;;21.93;27.52;97748.22;5123250;28;634;-76
2020/12/30 01:09:04;;;;;;;;;;;;;;;21.67;27.98;97753.06;5123114;28;641;-76
2020/12/30 01:11:30;;;;;;;;;;;;;;;21.18;28.77;97749.66;5122710;28;871;-76
2020/12/30 01:13:55;;;;;;;;;;;;;;;21.66;28.24;97759.16;5122629;28;926;-76
2020/12/30 01:16:21;;;;;;;;;;;;;;;21.58;28.37;97750.13;5122968;28;1098;-76
2020/12/30 01:18:47;;;;;;;;;;;;;;;21.42;28.84;97741.72;5122667;28;1979;-76
2020/12/30 01:21:12;;;;;;;;;;;;;;;21.41;28.86;97740.94;5123268;28;614;-76
2020/12/30 01:23:38;;;;;;;;;;;;;;;21.96;27.89;97741.63;5122767;28;581;-76
2020/12/30 01:26:03;;;;;;;;;;;;;;;22.33;27.40;97742.88;5122423;28;840;-76
2020/12/30 01:28:29;;;;;;;;;;;;;;;22.69;26.72;97747.34;5122189;28;916;-76
2020/12/30 01:30:54;;;;;;;;;;;;;;;22.82;26.69;97744.44;5122942;28;925;-76
2020/12/30 01:33:19;;;;;;;;;;;;;;;22.10;27.27;97740.38;5122548;28;726;-76
2020/12/30 01:35:45;;;;;;;;;;;;;;;21.73;27.94;97744.81;5122611;28;664;-76
2020/12/30 01:38:10;;;;;;;;;;;;;;;21.41;28.54;97734.47;5122661;28;1901;-76
2020/12/30 01:40:36;;;;;;;;;;;;;;;21.87;28.29;97732.25;5122236;28;1048;-76
2020/12/30 01:43:01;;;;;;;;;;;;;;;22.56;27.18;97735.22;5122123;28;858;-76
2020/12/30 01:45:27;;;;;;;;;;;;;;;22.67;26.71;97738.47;5122358;28;827;-76
2020/12/30 01:47:52;;;;;;;;;;;;;;;22.53;27.18;97745.44;5122220;28;657;-76
2020/12/30 01:50:17;;;;;;;;;;;;;;;21.58;28.23;97750.13;5121538;28;665;-76
2020/12/30 01:52:43;;;;;;;;;;;;;;;21.71;27.88;97748.09;5122256;28;729;-76
2020/12/30 01:55:09;;;;;;;;;;;;;;;21.49;28.20;97742.28;5121124;28;838;-76
2020/12/30 01:57:36;;;;;;;;;;;;;;;21.56;28.74;97742.09;5121781;28;1960;-76
2020/12/30 02:00:02;;;;;;;;;;;;;;;22.23;27.36;97738.38;5121307;28;953;-76
2020/12/30 02:02:29;;;;;;;;;;;;;;;22.70;26.84;97736.78;5122287;28;686;-76
2020/12/30 02:04:59;;;;;;;;;;;;;;;22.72;26.71;97734.25;5121454;28;1160;-77
2020/12/30 02:07:25;;;;;;;;;;;;;;;22.38;26.92;97732.19;5122119;28;673;-76
2020/12/30 02:09:51;;;;;;;;;;;;;;;21.65;27.97;97732.91;5121823;28;816;-76
2020/12/30 02:12:16;;;;;;;;;;;;;;;21.46;28.33;97737.53;5121712;28;878;-76
2020/12/30 02:14:41;;;;;;;;;;;;;;;21.54;28.19;97738.09;5121483;28;930;-76
2020/12/30 02:17:13;;;;;;;;;;;;;;;21.66;28.85;97730.84;5121691;28;999;-76
2020/12/30 02:19:39;;;;;;;;;;;;;;;22.25;27.49;97716.03;5121668;28;1963;-76
2020/12/30 02:22:05;;;;;;;;;;;;;;;22.51;26.98;97710.28;5122006;28;642;-76
2020/12/30 02:24:30;;;;;;;;;;;;;;;22.69;26.69;97716.13;5121438;28;1047;-76
2020/12/30 02:26:56;;;;;;;;;;;;;;;22.50;26.90;97718.00;5120779;28;934;-76
2020/12/30 02:29:21;;;;;;;;;;;;;;;21.77;27.93;97720.00;5120681;28;1121;-76
2020/12/30 02:31:47;;;;;;;;;;;;;;;21.45;28.33;97718.16;5121993;28;682;-76
2020/12/30 02:34:13;;;;;;;;;;;;;;;21.45;28.23;97730.28;5122020;28;669;-76
2020/12/30 02:36:38;;;;;;;;;;;;;;;21.51;28.42;97739.03;5121539;28;645;-76
2020/12/30 02:39:04;;;;;;;;;;;;;;;22.14;27.98;97729.75;5120695;28;1889;-76
2020/12/30 02:41:29;;;;;;;;;;;;;;;22.64;26.83;97719.56;5121387;28;907;-76
2020/12/30 02:43:54;;;;;;;;;;;;;;;22.73;26.70;97719.63;5121092;28;867;-76
2020/12/30 02:46:20;;;;;;;;;;;;;;;22.56;27.05;97715.38;5121145;28;690;-76
2020/12/30 02:48:45;;;;;;;;;;;;;;;21.51;28.26;97733.34;5120967;28;656;-76
2020/12/30 02:51:11;;;;;;;;;;;;;;;21.50;28.42;97715.59;5120706;28;618;-76
2020/12/30 02:53:36;;;;;;;;;;;;;;;21.12;29.09;97715.47;5120522;28;838;-76
2020/12/30 02:56:02;;;;;;;;;;;;;;;20.67;28.75;97577.78;5120969;28;922;-76
2020/12/30 02:58:27;;;;;;;;;;;;;;;22.31;27.45;97705.69;5121031;28;1894;-76
2020/12/30 03:00:52;;;;;;;;;;;;;;;22.54;27.06;97707.34;5121349;28;689;-76
2020/12/30 03:03:18;;;;;;;;;;;;;;;22.65;26.85;97695.63;5121156;28;697;-76
2020/12/30 03:05:43;;;;;;;;;;;;;;;22.22;27.04;97705.59;5120691;28;726;-76
2020/12/30 03:08:09;;;;;;;;;;;;;;;21.85;27.75;97702.31;5120372;28;901;-76
2020/12/30 03:10:34;;;;;;;;;;;;;;;21.76;27.46;97699.41;5120615;28;864;-76
2020/12/30 03:13:00;;;;;;;;;;;;;;;21.61;27.80;97712.41;5121035;28;827;-76
2020/12/30 03:15:25;;;;;;;;;;;;;;;21.96;27.88;97704.00;5120748;28;701;-76
2020/12/30 03:17:50;;;;;;;;;;;;;;;22.68;26.64;97700.34;5120726;28;1906;-76
2020/12/30 03:20:16;;;;;;;;;;;;;;;22.78;26.55;97704.84;5120781;28;725;-75
2020/12/30 03:22:41;;;;;;;;;;;;;;;22.10;27.27;97700.72;5120628;28;1132;-76
2020/12/30 03:25:07;;;;;;;;;;;;;;;21.75;27.81;97702.66;5119478;28;931;-76
2020/12/30 03:27:32;;;;;;;;;;;;;;;21.26;28.46;97706.56;5120691;28;839;-76
2020/12/30 03:29:58;;;;;;;;;;;;;;;21.94;28.18;97703.69;5120520;28;854;-76
2020/12/30 03:32:23;;;;;;;;;;;;;;;22.29;27.55;97707.41;5120762;28;646;-76
2020/12/30 03:34:48;;;;;;;;;;;;;;;22.56;26.70;97701.19;5120496;28;586;-75
2020/12/30 03:37:14;;;;;;;;;;;;;;;22.78;26.64;97706.91;5120238;28;1061;-76
2020/12/30 03:39:42;;;;;;;;;;;;;;;22.15;27.39;97714.34;5119988;28;1976;-76
2020/12/30 03:42:08;;;;;;;;;;;;;;;21.70;27.89;97711.72;5120642;28;952;-76
2020/12/30 03:44:33;;;;;;;;;;;;;;;21.57;27.80;97714.56;5120336;28;641;-77
2020/12/30 03:46:59;;;;;;;;;;;;;;;21.69;27.94;97705.28;5120474;28;614;-76
2020/12/30 03:49:24;;;;;;;;;;;;;;;22.16;27.86;97698.91;5119968;28;753;-76
2020/12/30 03:51:50;;;;;;;;;;;;;;;22.52;27.25;97703.38;5120070;28;802;-76
2020/12/30 03:54:15;;;;;;;;;;;;;;;22.66;26.58;97696.41;5119934;28;917;-76
2020/12/30 03:56:40;;;;;;;;;;;;;;;21.72;28.07;97704.38;5120363;28;890;-76
2020/12/30 03:59:06;;;;;;;;;;;;;;;21.40;28.27;97701.72;5120161;28;1914;-75
2020/12/30 04:01:31;;;;;;;;;;;;;;;20.87;29.20;97701.25;5120507;28;677;-76
2020/12/30 04:03:57;;;;;;;;;;;;;;;21.44;29.12;97705.25;5120575;28;626;-76
2020/12/30 04:06:22;;;;;;;;;;;;;;;22.24;27.51;97700.28;5119853;28;1085;-76
2020/12/30 04:08:48;;;;;;;;;;;;;;;22.55;26.67;97693.94;5120057;28;910;-76
2020/12/30 04:11:13;;;;;;;;;;;;;;;22.84;26.17;97696.53;5120527;28;944;-76
2020/12/30 04:13:38;;;;;;;;;;;;;;;22.45;26.54;97697.94;5119842;28;903;-76
2020/12/30 04:16:04;;;;;;;;;;;;;;;21.59;27.93;97695.88;5120195;28;682;-76
2020/12/30 04:18:29;;;;;;;;;;;;;;;21.38;28.19;97695.75;5123781;28;1980;-76
2020/12/30 04:20:55;;;;;;;;;;;;;;;21.32;28.14;97699.13;5123724;28;909;-75
2020/12/30 04:23:20;;;;;;;;;;;;;;;21.88;28.17;97688.50;5123764;28;897;-76
2020/12/30 04:25:48;;;;;;;;;;;;;;;22.24;27.50;97691.78;5124015;28;900;-76
2020/12/30 04:28:15;;;;;;;;;;;;;;;22.57;26.84;97689.38;5123724;28;700;-76
2020/12/30 04:30:40;;;;;;;;;;;;;;;22.46;26.79;97683.31;5123713;28;638;-76
2020/12/30 04:33:05;;;;;;;;;;;;;;;21.29;28.72;97694.31;5123852;28;649;-75
2020/12/30 04:35:31;;;;;;;;;;;;;;;21.69;27.67;97687.50;5123411;28;1021;-75
2020/12/30 04:37:57;;;;;;;;;;;;;;;21.04;28.87;97694.31;5123171;28;1887;-76
2020/12/30 04:40:23;;;;;;;;;;;;;;;21.61;27.99;97692.59;5123581;28;953;-75
2020/12/30 04:42:48;;;;;;;;;;;;;;;21.60;28.77;97691.00;5122955;28;559;-76
2020/12/30 04:45:13;;;;;;;;;;;;;;;22.39;27.19;97694.91;5123026;28;647;-76
2020/12/30 04:47:39;;;;;;;;;;;;;;;22.60;26.81;97697.00;5122868;28;666;-76
2020/12/30 04:50:04;;;;;;;;;;;;;;;22.63;26.84;97706.59;5122810;28;947;-75
2020/12/30 04:52:30;;;;;;;;;;;;;;;22.68;26.50;97700.34;5123137;28;936;-76
2020/12/30 04:54:55;;;;;;;;;;;;;;;21.74;27.88;97709.56;5122574;28;1372;-76
2020/12/30 04:57:30;;;;;;;;;;;;;;;21.65;28.09;97707.41;5124044;28;741;-76
2020/12/30 04:59:55;;;;;;;;;;;;;;;21.32;28.30;97724.59;5122354;28;1902;-76
2020/12/30 05:02:32;;;;;;;;;;;;;;;21.28;28.78;97715.38;5123458;28;706;-76
2020/12/30 05:04:57;;;;;;;;;;;;;;;22.11;27.65;97699.50;5122675;28;986;-76
2020/12/30 05:07:22;;;;;;;;;;;;;;;22.48;26.66;97702.69;5122902;28;968;-76
2020/12/30 05:09:48;;;;;;;;;;;;;;;22.55;26.69;97699.63;5122597;28;1286;-76
2020/12/30 05:12:17;;;;;;;;;;;;;;;21.89;27.47;97695.75;5122227;28;669;-76
2020/12/30 05:14:43;;;;;;;;;;;;;;;21.55;27.85;97688.72;5122882;28;610;-76
2020/12/30 05:17:08;;;;;;;;;;;;;;;21.24;28.30;97688.44;5122933;28;1069;-76
2020/12/30 05:19:34;;;;;;;;;;;;;;;21.58;28.71;97699.16;5122378;28;1905;-76
2020/12/30 05:22:00;;;;;;;;;;;;;;;22.27;27.28;97692.88;5122586;28;868;-76
2020/12/30 05:24:26;;;;;;;;;;;;;;;22.43;27.22;97687.03;5122699;28;958;-76
2020/12/30 05:26:51;;;;;;;;;;;;;;;22.78;26.67;97687.84;5122179;28;1349;-76
2020/12/30 05:29:17;;;;;;;;;;;;;;;22.60;26.76;97690.53;5121513;28;622;-76
2020/12/30 05:31:42;;;;;;;;;;;;;;;21.29;28.22;97691.50;5122131;28;598;-76
2020/12/30 05:34:08;;;;;;;;;;;;;;;21.66;27.98;97686.38;5121464;28;1240;-76
2020/12/30 05:36:33;;;;;;;;;;;;;;;21.59;28.01;97686.59;5122246;28;941;-75
2020/12/30 05:38:59;;;;;;;;;;;;;;;21.55;28.42;97688.72;5122348;28;1977;-76
2020/12/30 05:41:24;;;;;;;;;;;;;;;21.48;28.61;97684.09;5122389;28;640;-76
2020/12/30 05:43:50;;;;;;;;;;;;;;;21.92;28.35;97684.31;5122202;28;672;-76
2020/12/30 05:46:25;;;;;;;;;;;;;;;22.35;27.47;97672.34;5122490;28;590;-76
2020/12/30 05:48:52;;;;;;;;;;;;;;;22.86;26.46;97666.47;5122080;28;879;-76
2020/12/30 05:51:24;;;;;;;;;;;;;;;21.90;28.03;97663.34;5121988;28;938;-76
2020/12/30 05:54:04;;;;;;;;;;;;;;;21.00;29.25;97665.31;5122134;28;614;-76
2020/12/30 05:56:30;;;;;;;;;;;;;;;21.45;28.50;97661.53;5121476;28;713;-76
2020/12/30 05:58:55;;;;;;;;;;;;;;;21.81;28.28;97656.34;5121237;28;1901;-76
2020/12/30 06:01:24;;;;;;;;;;;;;;;22.47;27.29;97656.53;5121474;28;693;-76
2020/12/30 06:04:08;;;;;;;;;;;;;;;22.63;26.86;97664.06;5121754;28;915;-76
2020/12/30 06:06:33;;;;;;;;;;;;;;;22.81;26.63;97655.72;5121747;28;926;-76
2020/12/30 06:08:59;;;;;;;;;;;;;;;21.83;27.61;97659.50;5121150;28;734;-76
2020/12/30 06:11:24;;;;;;;;;;;;;;;21.49;28.31;97667.88;5122080;28;630;-76
2020/12/30 06:13:53;;;;;;;;;;;;;;;21.28;28.58;97675.78;5122070;28;634;-76
2020/12/30 06:16:19;;;;;;;;;;;;;;;21.44;29.34;97671.28;5121816;28;721;-76
2020/12/30 06:18:44;;;;;;;;;;;;;;;22.38;27.37;97669.84;5120293;28;1969;-76
2020/12/30 06:21:09;;;;;;;;;;;;;;;22.50;27.08;97666.19;5120931;28;877;-76
2020/12/30 06:23:35;;;;;;;;;;;;;;;22.58;26.59;97688.13;5120819;28;859;-76
2020/12/30 06:26:00;;;;;;;;;;;;;;;21.98;27.64;97674.00;5121013;28;650;-76
2020/12/30 06:28:26;;;;;;;;;;;;;;;21.55;27.85;97683.88;5103858;28;1120;-76
2020/12/30 06:30:51;;;;;;;;;;;;;;;21.00;28.99;97679.47;5120861;28;725;-75
2020/12/30 06:33:21;;;;;;;;;;;;;;;21.95;28.37;97682.59;5120961;28;950;-76
2020/12/30 06:35:47;;;;;;;;;;;;;;;22.43;27.03;97683.44;5121331;28;891;-76
2020/12/30 06:38:18;;;;;;;;;;;;;;;22.54;27.05;97689.53;5121175;28;1971;-76
2020/12/30 06:41:10;;;;;;;;;;;;;;;22.80;26.67;97699.53;5120573;28;619;-76
2020/12/30 06:43:35;;;;;;;;;;;;;;;21.70;27.89;97701.19;5118919;28;1309;-76
2020/12/30 06:46:01;;;;;;;;;;;;;;;21.28;28.49;97706.09;5121281;28;648;-76
2020/12/30 06:48:26;;;;;;;;;;;;;;;21.55;28.31;97702.88;5120826;28;923;-76
2020/12/30 06:50:52;;;;;;;;;;;;;;;21.38;28.73;97701.41;5120982;28;875;-76
2020/12/30 06:53:27;;;;;;;;;;;;;;;21.47;28.84;97704.34;5121052;28;868;-75
2020/12/30 06:55:53;;;;;;;;;;;;;;;22.25;27.77;97701.84;5121601;28;646;-76
2020/12/30 06:58:37;;;;;;;;;;;;;;;22.54;27.05;97700.88;5119877;28;1906;-76
2020/12/30 07:01:03;;;;;;;;;;;;;;;22.96;26.33;97692.09;5121265;28;607;-76
2020/12/30 07:03:41;;;;;;;;;;;;;;;22.33;27.36;97697.53;5120308;28;1018;-76
2020/12/30 07:06:35;;;;;;;;;;;;;;;21.87;27.81;97701.09;5119983;28;891;-76
2020/12/30 07:09:05;;;;;;;;;;;;;;;21.47;28.49;97704.34;5112001;28;1133;-76
2020/12/30 07:11:36;;;;;;;;;;;;;;;21.69;28.68;97699.59;5121123;28;626;-76
2020/12/30 07:14:04;;;;;;;;;;;;;;;22.15;27.57;97703.00;5120740;28;637;-76
2020/12/30 07:16:33;;;;;;;;;;;;;;;22.41;27.15;97691.59;5120624;28;1035;-76
2020/12/30 07:18:58;;;;;;;;;;;;;;;22.51;26.65;97690.44;5120260;28;1909;-76
2020/12/30 07:21:23;;;;;;;;;;;;;;;21.61;28.31;97697.47;5120375;28;895;-76
2020/12/30 07:23:49;;;;;;;;;;;;;;;21.47;28.48;97695.88;5120651;28;879;-76
2020/12/30 07:26:18;;;;;;;;;;;;;;;21.32;28.64;97704.78;5120975;28;595;-76
2020/12/30 07:28:44;;;;;;;;;;;;;;;21.92;28.19;97706.19;5120470;28;625;-76
2020/12/30 07:31:10;;;;;;;;;;;;;;;22.12;27.80;97709.56;5120812;28;751;-76
2020/12/30 07:33:36;;;;;;;;;;;;;;;22.29;27.75;97713.88;5120060;28;917;-76
2020/12/30 07:36:03;;;;;;;;;;;;;;;22.54;27.09;97706.56;5120276;28;909;-76
2020/12/30 07:38:28;;;;;;;;;;;;;;;22.36;27.37;97713.59;5120276;28;1898;-76
2020/12/30 07:41:03;;;;;;;;;;;;;;;21.68;28.15;97719.88;5119901;28;682;-76
2020/12/30 07:43:29;;;;;;;;;;;;;;;21.62;28.03;97716.03;5120240;28;737;-76
2020/12/30 07:45:57;;;;;;;;;;;;;;;21.21;29.01;97709.94;5120480;28;717;-76
2020/12/30 07:48:22;;;;;;;;;;;;;;;21.50;28.72;97714.75;5119026;28;1114;-76
2020/12/30 07:50:48;;;;;;;;;;;;;;;21.84;28.58;97703.56;5121625;28;859;-76
2020/12/30 07:53:17;;;;;;;;;;;;;;;22.14;28.07;97707.09;5124339;28;976;-76
2020/12/30 07:55:42;;;;;;;;;;;;;;;22.57;27.01;97699.94;5124486;28;685;-76
2020/12/30 07:58:08;;;;;;;;;;;;;;;22.57;26.98;97705.63;5124685;28;1905;-76
2020/12/30 08:00:34;;;;;;;;;;;;;;;22.39;27.49;97713.97;5123337;28;794;-76
2020/12/30 08:02:59;;;;;;;;;;;;;;;21.79;28.32;97715.47;5124193;28;1053;-76
2020/12/30 08:05:25;;;;;;;;;;;;;;;21.65;28.18;97715.13;5124200;28;893;-76
2020/12/30 08:07:50;;;;;;;;;;;;;;;21.73;28.15;97719.31;5123425;28;864;-76
2020/12/30 08:10:20;;;;;;;;;;;;;;;21.45;29.06;97718.16;5124441;28;756;-76
2020/12/30 08:12:46;;;;;;;;;;;;;;;21.53;28.70;97714.66;5124120;28;646;-76
2020/12/30 08:15:11;;;;;;;;;;;;;;;21.92;28.20;97712.66;5124193;28;566;-76
2020/12/30 08:17:37;;;;;;;;;;;;;;;22.46;27.26;97722.22;5123737;27;1061;-76
2020/12/30 08:20:02;;;;;;;;;;;;;;;22.68;27.13;97717.38;5122916;28;1976;-76
2020/12/30 08:22:28;;;;;;;;;;;;;;;21.93;27.85;97713.44;5123397;28;1353;-76
2020/12/30 08:24:53;;;;;;;;;;;;;;;21.38;28.67;97718.38;5123803;28;598;-76
2020/12/30 08:27:28;;;;;;;;;;;;;;;21.62;28.18;97722.50;5123802;28;642;-75
2020/12/30 08:29:54;;;;;;;;;;;;;;;21.39;29.08;97714.31;5123687;28;606;-75
2020/12/30 08:32:34;;;;;;;;;;;;;;;21.96;28.24;97707.63;5123530;28;923;-76
2020/12/30 08:35:00;;;;;;;;;;;;;;;22.26;27.40;97713.97;5123466;28;883;-76
2020/12/30 08:37:27;;;;;;;;;;;;;;;22.53;27.18;97705.72;5123756;28;822;-76
2020/12/30 08:39:55;;;;;;;;;;;;;;;22.00;27.69;97704.69;5122707;28;1902;-75
2020/12/30 08:42:26;;;;;;;;;;;;;;;21.67;28.29;97699.28;5123628;28;667;-76
2020/12/30 08:44:53;;;;;;;;;;;;;;;21.60;28.32;97685.31;5123594;28;703;-76
2020/12/30 08:47:18;;;;;;;;;;;;;;;21.38;28.54;97684.41;5122922;28;870;-76
2020/12/30 08:49:43;;;;;;;;;;;;;;;21.57;29.22;97680.59;5122397;28;984;-76
2020/12/30 08:52:20;;;;;;;;;;;;;;;22.15;27.96;97686.00;5122853;28;876;-76
2020/12/30 08:54:45;;;;;;;;;;;;;;;22.44;27.40;97673.69;5123427;28;597;-76
2020/12/30 08:57:11;;;;;;;;;;;;;;;22.71;26.87;97665.41;5123383;28;618;-76
2020/12/30 08:59:36;;;;;;;;;;;;;;;22.09;27.82;97673.63;5123018;28;1886;-76
2020/12/30 09:02:11;;;;;;;;;;;;;;;21.45;28.77;97670.03;5121450;28;1524;-76
2020/12/30 09:04:37;;;;;;;;;;;;;;;21.46;28.84;97668.81;5122880;28;875;-76
2020/12/30 09:07:02;;;;;;;;;;;;;;;21.50;28.91;97660.97;5123332;28;768;-76
2020/12/30 09:09:28;;;;;;;;;;;;;;;21.45;28.73;97664.38;5123014;28;705;-76
2020/12/30 09:11:53;;;;;;;;;;;;;;;21.67;29.05;97662.47;5123350;28;631;-76
2020/12/30 09:14:18;;;;;;;;;;;;;;;22.03;28.23;97658.47;5122813;28;649;-76
2020/12/30 09:17:13;;;;;;;;;;;;;;;22.20;27.71;97651.41;5122403;28;1003;-76
2020/12/30 09:19:38;;;;;;;;;;;;;;;22.52;27.33;97641.00;5121305;28;2026;-76
2020/12/30 09:22:10;;;;;;;;;;;;;;;21.17;29.66;97629.25;5123185;28;670;-75
2020/12/30 09:24:36;;;;;;;;;;;;;;;21.37;29.10;97646.03;5122677;28;677;-76
2020/12/30 09:27:31;;;;;;;;;;;;;;;21.64;28.66;97649.22;5122975;28;572;-76
2020/12/30 09:30:06;;;;;;;;;;;;;;;21.27;29.24;97642.28;5113927;28;1304;-76
2020/12/30 09:32:31;;;;;;;;;;;;;;;21.35;29.28;97640.84;5122476;28;841;-76
2020/12/30 09:34:57;;;;;;;;;;;;;;;21.20;29.75;97634.00;5122279;28;949;-76
2020/12/30 09:37:23;;;;;;;;;;;;;;;21.77;29.02;97641.50;5122990;28;861;-75
2020/12/30 09:39:48;;;;;;;;;;;;;;;22.31;27.83;97620.66;5122447;28;1965;-76
2020/12/30 09:42:19;;;;;;;;;;;;;;;22.64;27.23;97625.97;5121671;28;1317;-76
2020/12/30 09:44:45;;;;;;;;;;;;;;;21.83;28.57;97619.84;5122259;28;669;-76
2020/12/30 09:47:10;;;;;;;;;;;;;;;21.57;28.94;97618.31;5122236;28;981;-76
2020/12/30 09:49:36;;;;;;;;;;;;;;;21.39;29.33;97603.91;5121924;28;961;-76
2020/12/30 09:52:01;;;;;;;;;;;;;;;21.77;29.01;97607.53;5122175;28;883;-76
2020/12/30 09:54:27;;;;;;;;;;;;;;;22.34;28.04;97608.41;5122240;28;577;-76
2020/12/30 09:56:52;;;;;;;;;;;;;;;22.36;27.96;97605.09;5122496;28;666;-76
2020/12/30 09:59:20;;;;;;;;;;;;;;;22.57;27.42;97592.19;5122230;28;1963;-76
2020/12/30 10:01:47;;;;;;;;;;;;;;;22.03;28.10;97593.31;5121903;28;1098;-76
2020/12/30 10:04:12;;;;;;;;;;;;;;;21.06;29.40;97595.63;5121632;28;847;-76
2020/12/30 10:06:38;;;;;;;;;;;;;;;21.55;28.75;97586.81;5121884;28;890;-76
2020/12/30 10:09:03;;;;;;;;;;;;;;;21.48;29.00;97587.84;5122067;28;685;-76
2020/12/30 10:11:29;;;;;;;;;;;;;;;21.47;29.15;97574.16;5122161;28;694;-76
2020/12/30 10:13:54;;;;;;;;;;;;;;;22.21;28.31;97581.34;5122058;28;744;-76
2020/12/30 10:16:20;;;;;;;;;;;;;;;22.30;28.22;97576.56;5121585;28;928;-76
2020/12/30 10:18:45;;;;;;;;;;;;;;;22.44;27.93;97571.63;5121161;28;1909;-76
2020/12/30 10:21:11;;;;;;;;;;;;;;;22.52;27.83;97587.13;5121777;28;959;-76
2020/12/30 10:23:36;;;;;;;;;;;;;;;22.74;27.63;97572.91;5121436;28;658;-76
2020/12/30 10:26:02;;;;;;;;;;;;;;;22.03;28.65;97553.63;5122014;28;744;-76
2020/12/30 10:28:27;;;;;;;;;;;;;;;21.58;28.98;97564.06;5121949;28;657;-76
2020/12/30 10:30:52;;;;;;;;;;;;;;;21.64;29.18;97547.28;5121200;28;983;-76
2020/12/30 10:33:18;;;;;;;;;;;;;;;21.42;29.36;97577.56;5121127;28;935;-76
2020/12/30 10:35:43;;;;;;;;;;;;;;;21.42;29.29;97594.53;5121311;28;955;-76
2020/12/30 10:38:09;;;;;;;;;;;;;;;21.59;29.09;97576.16;5121138;28;1901;-76
2020/12/30 10:40:34;;;;;;;;;;;;;;;21.45;29.50;97565.31;5121522;28;654;-76
2020/12/30 10:43:03;;;;;;;;;;;;;;;22.00;28.70;97563.84;5121251;28;594;-76
2020/12/30 10:45:28;;;;;;;;;;;;;;;22.50;27.84;97569.78;5121012;28;890;-76
2020/12/30 10:47:54;;;;;;;;;;;;;;;22.43;27.83;97578.53;5120949;28;956;-76
2020/12/30 10:50:19;;;;;;;;;;;;;;;22.30;28.05;97587.91;5121000;28;882;-76
2020/12/30 10:52:45;;;;;;;;;;;;;;;21.63;29.20;97576.84;5120978;28;641;-76
2020/12/30 10:55:10;;;;;;;;;;;;;;;21.63;28.96;97576.06;5121371;28;650;-76
2020/12/30 10:57:35;;;;;;;;;;;;;;;21.33;29.34;97579.03;5121031;28;649;-76
2020/12/30 11:00:01;;;;;;;;;;;;;;;21.53;29.25;97583.66;5120504;28;1971;-76
2020/12/30 11:02:27;;;;;;;;;;;;;;;21.42;29.45;97586.03;5120739;28;853;-76
2020/12/30 11:04:52;;;;;;;;;;;;;;;21.76;29.33;97569.13;5120771;28;905;-76
2020/12/30 11:07:18;;;;;;;;;;;;;;;22.19;28.59;97555.53;5120908;28;594;-76
2020/12/30 11:09:44;;;;;;;;;;;;;;;22.43;27.97;97562.31;5120859;28;720;-76
2020/12/30 11:12:09;;;;;;;;;;;;;;;22.65;27.80;97559.50;5121029;28;665;-76
2020/12/30 11:14:34;;;;;;;;;;;;;;;22.31;27.93;97541.28;5120364;28;869;-76
2020/12/30 11:17:00;;;;;;;;;;;;;;;21.94;28.50;97531.69;5120518;28;1107;-76
2020/12/30 11:19:25;;;;;;;;;;;;;;;21.80;28.79;97544.28;5120536;28;1898;-76
2020/12/30 11:21:54;;;;;;;;;;;;;;;21.41;29.25;97531.47;5121078;28;697;-76
2020/12/30 11:24:19;;;;;;;;;;;;;;;21.40;29.36;97534.75;5120952;28;653;-76
2020/12/30 11:26:47;;;;;;;;;;;;;;;21.41;29.66;97553.34;5120477;28;722;-76
2020/12/30 11:29:13;;;;;;;;;;;;;;;22.10;28.63;97542.03;5120142;28;963;-76
2020/12/30 11:31:38;;;;;;;;;;;;;;;22.27;28.21;97540.63;5120558;28;865;-76
2020/12/30 11:34:04;;;;;;;;;;;;;;;22.59;27.89;97538.66;5120812;28;923;-76
2020/12/30 11:36:30;;;;;;;;;;;;;;;22.09;28.38;97529.13;5119637;28;845;-76
2020/12/30 11:38:55;;;;;;;;;;;;;;;21.89;28.49;97531.47;5119711;28;1894;-76
2020/12/30 11:41:20;;;;;;;;;;;;;;;21.22;29.60;97540.97;5120505;28;622;-76
2020/12/30 11:43:46;;;;;;;;;;;;;;;21.34;29.52;97543.03;5120110;28;862;-76
2020/12/30 11:46:15;;;;;;;;;;;;;;;21.58;29.47;97535.75;5120335;28;898;-76
2020/12/30 11:48:40;;;;;;;;;;;;;;;21.99;28.78;97533.13;5120445;28;910;-76
2020/12/30 11:51:06;;;;;;;;;;;;;;;22.42;28.00;97535.22;5120173;28;606;-76
2020/12/30 11:53:31;;;;;;;;;;;;;;;22.84;27.21;97541.31;5120205;28;649;-76
2020/12/30 11:55:57;;;;;;;;;;;;;;;22.30;27.77;97539.72;5120424;28;670;-76
2020/12/30 11:58:23;;;;;;;;;;;;;;;21.75;29.03;97546.91;5119804;28;1894;-76
2020/12/30 12:00:48;;;;;;;;;;;;;;;21.56;28.97;97528.97;5120016;28;914;-76
2020/12/30 12:03:14;;;;;;;;;;;;;;;21.56;29.12;97541.06;5120191;28;844;-76
2020/12/30 12:05:39;;;;;;;;;;;;;;;21.47;29.74;97517.53;5120557;28;666;-76
2020/12/30 12:08:04;;;;;;;;;;;;;;;22.26;28.32;97530.53;5120181;28;710;-76
2020/12/30 12:10:30;;;;;;;;;;;;;;;22.63;27.47;97525.13;5120372;28;725;-76
2020/12/30 12:12:55;;;;;;;;;;;;;;;22.55;27.79;97527.44;5120030;28;1042;-76
2020/12/30 12:15:21;;;;;;;;;;;;;;;22.32;27.84;97525.88;5120240;28;832;-76
2020/12/30 12:17:47;;;;;;;;;;;;;;;21.86;28.50;97521.84;5120357;28;1075;-76
2020/12/30 12:20:12;;;;;;;;;;;;;;;21.31;29.47;97518.47;5120030;28;1965;-76
2020/12/30 12:22:38;;;;;;;;;;;;;;;21.39;29.25;97521.84;5120052;28;729;-76
2020/12/30 12:25:03;;;;;;;;;;;;;;;21.31;29.45;97527.75;5120292;28;705;-76
2020/12/30 12:27:28;;;;;;;;;;;;;;;21.75;29.22;97522.22;5119188;28;957;-76
2020/12/30 12:29:54;;;;;;;;;;;;;;;22.25;28.16;97523.31;5119736;28;907;-76
2020/12/30 12:32:20;;;;;;;;;;;;;;;22.43;27.94;97530.34;5120241;28;841;-76
2020/12/30 12:34:47;;;;;;;;;;;;;;;22.38;27.95;97528.88;5119855;28;796;-76
2020/12/30 12:37:12;;;;;;;;;;;;;;;21.76;28.71;97529.47;5119633;28;649;-76
2020/12/30 12:39:38;;;;;;;;;;;;;;;22.01;28.08;97519.28;5123593;28;1985;-76
2020/12/30 12:42:03;;;;;;;;;;;;;;;21.42;29.28;97520.94;5123308;28;967;-76
2020/12/30 12:44:29;;;;;;;;;;;;;;;21.20;29.70;97521.63;5123173;28;792;-76
2020/12/30 12:46:55;;;;;;;;;;;;;;;21.55;29.26;97541.50;5123590;28;1085;-76
2020/12/30 12:49:20;;;;;;;;;;;;;;;21.75;29.15;97544.88;5123365;28;663;-75
2020/12/30 12:51:52;;;;;;;;;;;;;;;22.29;28.06;97538.13;5123517;28;632;-76
2020/12/30 12:54:18;;;;;;;;;;;;;;;22.60;27.49;97540.25;5123371;28;765;-76
2020/12/30 12:56:44;;;;;;;;;;;;;;;22.23;27.89;97542.81;5122251;28;956;-76
2020/12/30 12:59:09;;;;;;;;;;;;;;;21.97;28.19;97527.16;5122873;28;1901;-76
2020/12/30 13:01:35;;;;;;;;;;;;;;;21.66;28.91;97541.16;5122687;28;941;-76